createdAt,value
2018-06-16T00:00:20.881Z,101314.87
2018-06-16T00:05:13.789Z,101316.53
2018-06-16T00:10:06.739Z,101313.55
2018-06-16T00:14:59.661Z,101312.77
2018-06-16T00:19:52.502Z,101316.08
2018-06-16T00:24:45.416Z,101320.19
2018-06-16T00:29:38.311Z,101316.64
2018-06-16T00:34:31.287Z,101316.98
2018-06-16T00:39:24.133Z,101318.91
2018-06-16T00:44:17.069Z,101321.97
2018-06-16T00:49:10.257Z,101320.58
2018-06-16T00:54:03.146Z,101323.59
2018-06-16T00:58:56.035Z,101318.41
2018-06-16T01:03:48.957Z,101319.55
2018-06-16T01:08:41.787Z,101321.75
2018-06-16T01:13:34.665Z,101322.58
2018-06-16T01:18:27.628Z,101323.71
2018-06-16T01:23:20.566Z,101317.44
2018-06-16T01:28:13.443Z,101322.64
2018-06-16T01:33:06.274Z,101315.84
2018-06-16T01:37:59.141Z,101305.45
2018-06-16T01:42:52.005Z,101307.64
2018-06-16T01:47:44.872Z,101301.67
2018-06-16T01:52:37.741Z,101309.33
2018-06-16T01:57:30.563Z,101313.45
2018-06-16T02:02:23.438Z,101306.65
2018-06-16T02:07:16.341Z,101312.13
2018-06-16T02:12:09.202Z,101317.09
2018-06-16T02:17:02.080Z,101302.05
2018-06-16T02:21:54.930Z,101296.31
2018-06-16T02:26:47.731Z,101302.64
2018-06-16T02:31:40.646Z,101308.37
2018-06-16T02:36:33.431Z,101304.01
2018-06-16T02:41:26.312Z,101301.82
2018-06-16T02:46:19.220Z,101312.21
2018-06-16T02:51:12.087Z,101316.55
2018-06-16T02:56:05.026Z,101312.18
2018-06-16T03:00:57.914Z,101319.28
2018-06-16T03:05:50.725Z,101310.27
2018-06-16T03:10:43.587Z,101309.20
2018-06-16T03:15:36.641Z,101307.30
2018-06-16T03:20:29.641Z,101309.75
2018-06-16T03:25:22.486Z,101302.38
2018-06-16T03:30:15.372Z,101301.01
2018-06-16T03:35:08.243Z,101301.83
2018-06-16T03:40:01.079Z,101297.18
2018-06-16T03:44:53.956Z,101304.56
2018-06-16T03:49:46.801Z,101301.55
2018-06-16T03:54:39.637Z,101302.38
2018-06-16T03:59:32.502Z,101302.09
2018-06-16T04:04:25.327Z,101306.47
2018-06-16T04:09:18.198Z,101303.98
2018-06-16T04:14:11.085Z,101305.92
2018-06-16T04:19:04.011Z,101308.90
2018-06-16T04:23:56.855Z,101301.82
2018-06-16T04:28:49.713Z,101300.73
2018-06-16T04:33:42.600Z,101304.56
2018-06-16T04:38:35.504Z,101301.55
2018-06-16T04:43:28.303Z,101299.09
2018-06-16T04:48:21.111Z,101299.64
2018-06-16T04:53:14.042Z,101296.36
2018-06-16T04:58:06.946Z,101298.27
2018-06-16T05:02:59.906Z,101301.55
2018-06-16T05:07:52.734Z,101293.05
2018-06-16T05:12:45.629Z,101293.86
2018-06-16T05:17:38.517Z,101298.27
2018-06-16T05:22:31.371Z,101290.34
2018-06-16T05:27:24.289Z,101288.97
2018-06-16T05:32:17.194Z,101286.73
2018-06-16T05:37:10.003Z,101279.91
2018-06-16T05:42:02.947Z,101281.53
2018-06-16T05:46:55.842Z,101282.86
2018-06-16T05:51:48.663Z,101292.42
2018-06-16T05:56:41.594Z,101285.81
2018-06-16T06:01:34.472Z,101287.17
2018-06-16T06:06:27.441Z,101291.23
2018-06-16T06:11:20.281Z,101302.98
2018-06-16T06:16:13.221Z,101301.06
2018-06-16T06:21:06.198Z,101299.39
2018-06-16T06:25:59.101Z,101310.88
2018-06-16T06:30:52.001Z,101310.33
2018-06-16T06:35:44.909Z,101308.95
2018-06-16T06:40:37.834Z,101308.08
2018-06-16T06:45:30.808Z,101306.14
2018-06-16T06:50:23.707Z,101304.16
2018-06-16T06:55:16.574Z,101304.97
2018-06-16T07:00:09.451Z,101305.78
2018-06-16T07:05:02.337Z,101312.82
2018-06-16T07:09:55.309Z,101304.24
2018-06-16T07:14:48.209Z,101307.97
2018-06-16T07:19:41.123Z,101302.92
2018-06-16T07:24:34.052Z,101295.05
2018-06-16T07:29:26.951Z,101291.86
2018-06-16T07:34:19.819Z,101286.73
2018-06-16T07:39:12.695Z,101288.20
2018-06-16T07:44:05.717Z,101294.09
2018-06-16T07:48:58.637Z,101286.12
2018-06-16T07:53:51.521Z,101293.35
2018-06-16T07:58:44.380Z,101292.44
2018-06-16T08:03:37.297Z,101292.44
2018-06-16T08:08:30.116Z,101295.44
2018-06-16T08:13:22.945Z,101296.42
2018-06-16T08:18:15.774Z,101291.99
2018-06-16T08:23:08.584Z,101296.41
2018-06-16T08:28:01.482Z,101286.36
2018-06-16T08:32:54.294Z,101283.53
2018-06-16T08:37:47.169Z,101288.91
2018-06-16T08:42:40.279Z,101284.61
2018-06-16T08:47:33.089Z,101289.70
2018-06-16T08:52:25.939Z,101281.53
2018-06-16T08:57:18.874Z,101281.91
2018-06-16T09:02:11.797Z,101279.73
2018-06-16T09:07:04.728Z,101279.91
2018-06-16T09:11:57.663Z,101277.72
2018-06-16T09:16:50.489Z,101280.25
2018-06-16T09:21:43.473Z,101276.48
2018-06-16T09:26:36.420Z,101275.10
2018-06-16T09:31:29.268Z,101269.22
2018-06-16T09:36:22.133Z,101266.83
2018-06-16T09:41:15.066Z,101275.08
2018-06-16T09:46:08.031Z,101266.20
2018-06-16T09:51:01.022Z,101268.47
2018-06-16T09:55:54.098Z,101266.95
2018-06-16T10:00:47.261Z,101252.75
2018-06-16T10:05:40.250Z,101248.22
2018-06-16T10:10:33.156Z,101249.47
2018-06-16T10:15:26.118Z,101250.87
2018-06-16T10:20:19.271Z,101240.88
2018-06-16T10:25:12.183Z,101233.30
2018-06-16T10:30:05.159Z,101232.48
2018-06-16T10:34:58.018Z,101229.03
2018-06-16T10:39:50.959Z,101231.09
2018-06-16T10:44:43.769Z,101226.70
2018-06-16T10:49:36.652Z,101215.01
2018-06-16T10:54:29.547Z,101211.30
2018-06-16T10:59:22.414Z,101200.83
2018-06-16T11:04:15.330Z,101202.02
2018-06-16T11:09:09.317Z,101191.21
2018-06-16T11:14:02.171Z,101184.67
2018-06-16T11:18:55.000Z,101175.66
2018-06-16T11:23:47.889Z,101167.25
2018-06-16T11:28:40.768Z,101162.59
2018-06-16T11:33:33.618Z,101167.70
2018-06-16T11:38:26.438Z,101162.27
2018-06-16T11:43:19.265Z,101162.67
2018-06-16T11:48:12.117Z,101159.47
2018-06-16T11:53:05.026Z,101144.70
2018-06-16T11:57:57.888Z,101140.75
2018-06-16T12:02:50.820Z,101133.16
2018-06-16T12:07:43.833Z,101124.52
2018-06-16T12:12:36.747Z,101119.58
2018-06-16T12:17:29.566Z,101117.54
2018-06-16T12:22:22.445Z,101113.70
2018-06-16T12:27:15.293Z,101115.10
2018-06-16T12:32:08.238Z,101106.33
2018-06-16T12:37:01.167Z,101102.88
2018-06-16T12:41:53.994Z,101101.37
2018-06-16T12:46:46.891Z,101102.88
2018-06-16T12:51:39.681Z,101093.97
2018-06-16T12:56:32.571Z,101092.26
2018-06-16T13:01:25.459Z,101082.22
2018-06-16T13:06:18.356Z,101083.36
2018-06-16T13:11:11.766Z,101075.56
2018-06-16T13:16:04.961Z,101081.08
2018-06-16T13:20:57.801Z,101068.53
2018-06-16T13:25:50.615Z,101069.94
2018-06-16T13:30:43.561Z,101075.14
2018-06-16T13:35:36.432Z,101069.02
2018-06-16T13:40:29.329Z,101066.88
2018-06-16T13:45:22.152Z,101074.36
2018-06-16T13:50:14.980Z,101050.42
2018-06-16T13:55:07.809Z,101057.86
2018-06-16T14:00:00.672Z,101053.17
2018-06-16T14:04:53.660Z,101038.17
2018-06-16T14:09:46.589Z,101041.73
2018-06-16T14:14:39.512Z,101043.63
2018-06-16T14:19:32.378Z,101028.78
2018-06-16T14:24:25.217Z,101036.45
2018-06-16T14:29:18.108Z,101031.98
2018-06-16T14:34:10.935Z,101026.95
2018-06-16T14:39:05.682Z,101030.09
2018-06-16T14:43:58.559Z,101027.55
2018-06-16T14:48:51.444Z,101028.94
2018-06-16T14:53:44.345Z,101027.91
2018-06-16T14:58:37.358Z,101022.69
2018-06-16T15:03:30.320Z,101010.91
2018-06-16T15:08:23.221Z,101001.89
2018-06-16T15:13:16.138Z,101001.20
2018-06-16T15:18:09.555Z,100989.49
2018-06-16T15:23:02.495Z,100991.23
2018-06-16T15:27:55.385Z,100986.84
2018-06-16T15:32:48.313Z,100990.90
2018-06-16T15:37:41.238Z,100986.66
2018-06-16T15:42:34.248Z,100979.17
2018-06-16T15:47:27.027Z,100978.78
2018-06-16T15:52:19.848Z,100979.81
2018-06-16T15:57:12.796Z,100977.62
2018-06-16T16:02:05.720Z,100966.31
2018-06-16T16:06:58.553Z,100967.80
2018-06-16T16:11:51.309Z,100963.98
2018-06-16T16:16:44.146Z,100959.35
2018-06-16T16:21:37.050Z,100956.97
2018-06-16T16:26:29.909Z,100956.20
2018-06-16T16:31:22.881Z,100961.85
2018-06-16T16:36:15.733Z,100955.61
2018-06-16T16:41:08.696Z,100957.35
2018-06-16T16:46:01.564Z,100952.75
2018-06-16T16:50:54.474Z,100949.72
2018-06-16T16:55:47.333Z,100948.29
2018-06-16T17:00:40.248Z,100951.52
2018-06-16T17:05:33.105Z,100945.02
2018-06-16T17:10:25.950Z,100945.72
2018-06-16T17:15:18.868Z,100952.45
2018-06-16T17:20:11.856Z,100946.06
2018-06-16T17:25:04.881Z,100946.84
2018-06-16T17:29:57.819Z,100949.04
2018-06-16T17:34:50.749Z,100948.08
2018-06-16T17:39:43.682Z,100941.41
2018-06-16T17:44:36.748Z,100946.01
2018-06-16T17:49:29.682Z,100935.13
2018-06-16T17:54:22.617Z,100941.08
2018-06-16T17:59:15.561Z,100949.25
2018-06-16T18:04:08.450Z,100940.33
2018-06-16T18:09:01.311Z,100941.59
2018-06-16T18:13:54.298Z,100940.87
2018-06-16T18:18:47.184Z,100933.33
2018-06-16T18:23:40.113Z,100943.28
2018-06-16T18:28:33.449Z,100943.38
2018-06-16T18:33:26.336Z,100947.06
2018-06-16T18:38:19.937Z,100945.25
2018-06-16T18:43:12.852Z,100940.06
2018-06-16T18:48:05.797Z,100941.85
2018-06-16T18:52:58.692Z,100941.48
2018-06-16T18:57:51.601Z,100944.58
2018-06-16T19:02:44.453Z,100939.58
2018-06-16T19:07:37.497Z,100936.89
2018-06-16T19:12:30.444Z,100939.25
2018-06-16T19:17:23.429Z,100938.40
2018-06-16T19:22:16.302Z,100943.43
2018-06-16T19:27:09.147Z,100949.36
2018-06-16T19:32:02.078Z,100954.83
2018-06-16T19:36:54.989Z,100951.34
2018-06-16T19:41:47.888Z,100953.61
2018-06-16T19:46:40.829Z,100954.98
2018-06-16T19:51:33.832Z,100956.80
2018-06-16T19:56:26.737Z,100958.34
2018-06-16T20:01:19.724Z,100961.50
2018-06-16T20:06:12.591Z,100965.16
2018-06-16T20:11:05.436Z,100961.66
2018-06-16T20:15:58.212Z,100958.03
2018-06-16T20:20:51.081Z,100948.85
2018-06-16T20:25:43.992Z,100951.22
2018-06-16T20:30:36.885Z,100956.00
2018-06-16T20:35:29.854Z,100949.86
2018-06-16T20:40:22.730Z,100964.53
2018-06-16T20:45:15.638Z,100963.80
2018-06-16T20:50:08.487Z,100961.30
2018-06-16T20:55:01.462Z,100969.89
2018-06-16T20:59:54.388Z,100969.78
2018-06-16T21:04:47.258Z,100963.95
2018-06-16T21:09:40.186Z,100962.05
2018-06-16T21:14:33.088Z,100962.22
2018-06-16T21:19:25.961Z,100969.31
2018-06-16T21:24:18.840Z,100961.85
2018-06-16T21:29:11.827Z,100965.91
2018-06-16T21:34:04.782Z,100958.84
2018-06-16T21:38:57.860Z,100960.70
2018-06-16T21:43:50.707Z,100961.95
2018-06-16T21:48:43.629Z,100964.94
2018-06-16T21:53:36.584Z,100961.03
2018-06-16T21:58:30.382Z,100967.58
2018-06-16T22:03:23.265Z,100976.69
2018-06-16T22:08:24.632Z,100968.08
2018-06-16T22:13:17.550Z,100967.98
2018-06-16T22:18:10.617Z,100966.78
2018-06-16T22:23:03.554Z,100966.38
2018-06-16T22:27:56.497Z,100965.11
2018-06-16T22:32:49.383Z,100969.86
2018-06-16T22:37:42.618Z,100969.70
2018-06-16T22:42:35.480Z,100966.75
2018-06-16T22:47:28.356Z,100965.13
2018-06-16T22:57:20.908Z,100968.89
2018-06-16T23:02:13.847Z,100960.45
2018-06-16T23:07:06.989Z,100955.26
2018-06-16T23:11:59.902Z,100958.26
2018-06-16T23:16:52.723Z,100959.69
2018-06-16T23:21:45.609Z,100961.12
2018-06-16T23:26:38.535Z,100959.35
2018-06-16T23:31:31.475Z,100959.24
2018-06-16T23:36:24.377Z,100956.49
2018-06-16T23:41:17.248Z,100952.12
2018-06-16T23:46:10.209Z,100960.42
2018-06-16T23:51:03.084Z,100955.37
2018-06-16T23:55:55.969Z,100952.98
